METAR AND TAF INFORMATION
METAR FOR LGSA
ADDS - METARS form results

(0636 UTC 15 September 2019)
Data provider http://aviationweather.gov/metar/data/
 
METAR text: LGSA 150620Z 01005KT 9999 FEW025 24/15 Q1018
Conditions at: LGSA (SOUDA/KHANIA (AF, GR) observed 0620 UTC 15 September 2019
Temperature: 24.0°C (75°F)
Dewpoint: 15.0°C (59°F) [RH = 57%]
Pressure (altimeter): 30.06 inches Hg (1018.0 mb)
Winds: from the N (10 degrees) at 6 MPH (5 knots; 2.6 m/s)
Visibility: 6 or more miles (10+ km)
Ceiling: at least 12,000 feet AGL
Clouds: few clouds at 2500 feet AGL
Weather: no significant weather observed at this time

METAR text: LGSA 150550Z 33004KT 9999 FEW025 23/15 Q1017
Conditions at: LGSA (SOUDA/KHANIA (AF, GR) observed 0550 UTC 15 September 2019
Temperature: 23.0°C (73°F)
Dewpoint: 15.0°C (59°F) [RH = 61%]
Pressure (altimeter): 30.03 inches Hg (1017.0 mb)
Winds: from the NNW (330 degrees) at 5 MPH (4 knots; 2.1 m/s)
Visibility: 6 or more miles (10+ km)
Ceiling: at least 12,000 feet AGL
Clouds: few clouds at 2500 feet AGL
Weather: no significant weather observed at this time

Forecast for: LGSA (SOUDA/KHANIA (AF, GR)
Text: TAF LGSA 150500Z 1506/1606 36012KT 9999 FEW025
Forecast period: 0600 UTC 15 September 2019 to 0600 UTC 16 September 2019
Forecast type: FROM: standard forecast or significant change
Winds: from the N (360 degrees) at 14 MPH (12 knots; 6.2 m/s)
Visibility: 6 or more miles 10+ km)
Ceiling: at least 12,000 feet AGL
Clouds: few clouds at 2500 feet AGL
Weather: no significant weather forecast for this period
Text: TEMPO 1506/1516 36014G25KT
Forecast period: 0600 to 1600 UTC 15 September 2019
Forecast type: TEMPORARY: The following changes expected for less than half the time period
Winds: from the N (360 degrees) at 16 MPH (14 knots; 7.2 m/s)
gusting to 29 MPH (25 knots; 12.9 m/s)
Visibility: missing
Ceiling: unknown
Clouds: missing
Weather: no significant weather forecast for this period

 ΧΑΡΤΗΣ ΑΕΡΟΔΡΟΜΙΟΥ

 RUNWAY INFORMATION
Διάδρομος 11 Runway length 10982 ft Runway width 148 ft
Runway elevation 428 ft Runway displaced threshold 0 ft Runway heading 111
Διάδρομος 29 Runway length 10982 ft Runway width 148 ft
Runway elevation 490 ft Runway displaced threshold 0 ft Runway heading 291

 ΣΥΧΝΟΤΗΤΕΣ ΑΕΡΟΔΡΟΜΙΟΥ
Τύπος A/G Όνομα CHANIA RDO Συχνότητα 563.7 MHZ
Τύπος APP Όνομα APP Συχνότητα 118.125 MHZ
Τύπος GND Όνομα GND Συχνότητα 121.7 MHZ
Τύπος MISC Όνομα RANGER BAS Συχνότητα 25.24 MHZ
Τύπος OPS Όνομα BASE OPS Συχνότητα 35.94 MHZ
Τύπος PMSV Όνομα PMSV METRO Συχνότητα 35.94 MHZ
Τύπος POST Όνομα BULL PEN Συχνότητα 27.895 MHZ
Τύπος TWR Όνομα TWR Συχνότητα 121.1 MHZ

 AIRPORT NEAR NAVIGATION AIDS
Τύπος TACAN Όνομα Souda Συχνότητα 111200 KHZ
Τύπος VOR-DME Όνομα Chania Συχνότητα 108600 KHZ
Τύπος NDB Όνομα Chania Συχνότητα 409 KHZ



Hellenic Air Force Virtual - All rights reserved 2019 - Powered by VAM